createdAt,value
2022-07-30T00:04:01.687Z,63.24
2022-07-30T00:09:05.475Z,62.72
2022-07-30T00:14:09.919Z,62.48
2022-07-30T00:19:13.468Z,62.56
2022-07-30T00:24:17.092Z,63.66
2022-07-30T00:29:21.119Z,64.76
2022-07-30T00:34:24.317Z,64.97
2022-07-30T00:39:30.885Z,65.07
2022-07-30T00:44:34.082Z,64.91
2022-07-30T00:49:41.398Z,65.23
2022-07-30T00:54:47.114Z,65.26
2022-07-30T00:59:50.732Z,65.01
2022-07-30T01:04:53.762Z,64.56
2022-07-30T01:09:57.761Z,64.68
2022-07-30T01:15:03.504Z,64.94
2022-07-30T01:20:16.915Z,64.48
2022-07-30T01:25:42.599Z,64.65
2022-07-30T01:30:46.636Z,64.99
2022-07-30T01:35:55.127Z,65.51
2022-07-30T01:41:24.263Z,66.04
2022-07-30T01:46:29.797Z,67.00
2022-07-30T01:51:37.530Z,66.67
2022-07-30T01:56:43.370Z,66.84
2022-07-30T02:01:46.994Z,67.38
2022-07-30T02:07:19.757Z,68.00
2022-07-30T02:12:30.220Z,68.34
2022-07-30T02:17:55.305Z,68.56
2022-07-30T02:23:03.739Z,68.00
2022-07-30T02:28:11.507Z,68.28
2022-07-30T02:33:17.844Z,68.66
2022-07-30T02:38:25.629Z,69.19
2022-07-30T02:43:35.393Z,69.87
2022-07-30T02:48:42.133Z,69.72
2022-07-30T02:53:47.997Z,69.59
2022-07-30T02:58:53.748Z,70.25
2022-07-30T03:03:58.503Z,70.78
2022-07-30T03:09:03.657Z,71.22
2022-07-30T03:14:08.452Z,70.54
2022-07-30T03:19:17.196Z,70.00
2022-07-30T03:24:23.674Z,69.87
2022-07-30T03:29:29.349Z,69.83
2022-07-30T03:34:35.163Z,69.26
2022-07-30T03:39:39.883Z,69.61
2022-07-30T03:44:46.038Z,70.15
2022-07-30T03:49:50.767Z,70.10
2022-07-30T03:54:54.966Z,71.24
2022-07-30T04:00:27.569Z,70.90
2022-07-30T04:05:37.355Z,75.85
2022-07-30T04:10:44.626Z,71.67
2022-07-30T04:16:05.969Z,70.36
2022-07-30T04:21:29.583Z,71.00
2022-07-30T04:26:35.941Z,71.52
2022-07-30T04:31:41.437Z,70.87
2022-07-30T04:37:20.274Z,70.94
2022-07-30T04:42:24.829Z,70.35
2022-07-30T04:47:38.957Z,71.11
2022-07-30T04:53:10.659Z,70.84
2022-07-30T04:58:22.173Z,71.15
2022-07-30T05:03:26.623Z,69.65
2022-07-30T05:08:31.327Z,69.52
2022-07-30T05:13:38.681Z,67.73
2022-07-30T05:18:45.738Z,66.23
2022-07-30T05:23:50.608Z,63.13
2022-07-30T05:29:09.296Z,62.63
2022-07-30T05:34:26.044Z,56.78
2022-07-30T05:39:30.278Z,56.04
2022-07-30T05:44:52.278Z,52.50
2022-07-30T05:49:55.287Z,50.80
2022-07-30T05:54:59.455Z,49.60
2022-07-30T06:00:36.107Z,49.07
2022-07-30T06:05:39.978Z,46.63
2022-07-30T06:10:43.274Z,46.13
2022-07-30T06:15:48.179Z,46.30
2022-07-30T06:20:55.337Z,43.72
2022-07-30T06:26:28.018Z,42.71
2022-07-30T06:31:31.919Z,36.34
2022-07-30T06:36:35.721Z,35.65
2022-07-30T06:41:48.003Z,31.58
2022-07-30T06:46:51.471Z,29.91
2022-07-30T06:51:57.040Z,28.67
2022-07-30T06:57:02.539Z,27.85
2022-07-30T07:02:07.278Z,29.08
2022-07-30T07:07:40.708Z,29.55
2022-07-30T07:12:47.516Z,28.74
2022-07-30T07:17:54.489Z,28.31
2022-07-30T07:23:12.625Z,29.21
2022-07-30T07:28:19.382Z,30.31
2022-07-30T07:33:23.617Z,28.58
2022-07-30T07:38:27.038Z,27.09
2022-07-30T07:43:32.123Z,26.88
2022-07-30T07:48:37.246Z,27.18
2022-07-30T07:54:19.710Z,25.40
2022-07-30T07:59:19.994Z,25.40
2022-07-30T08:04:23.887Z,26.02
2022-07-30T08:09:46.986Z,26.90
2022-07-30T08:14:56.546Z,24.61
2022-07-30T08:20:18.536Z,24.91
2022-07-30T08:25:24.513Z,23.80
2022-07-30T08:30:29.020Z,24.26
2022-07-30T08:35:34.602Z,25.08
2022-07-30T08:40:38.649Z,24.83
2022-07-30T08:45:44.757Z,23.79
2022-07-30T08:51:09.386Z,23.62
2022-07-30T08:56:13.173Z,26.21
2022-07-30T09:01:16.965Z,24.70
2022-07-30T09:06:20.495Z,28.29
2022-07-30T09:11:25.093Z,31.36
2022-07-30T09:16:28.280Z,31.90
2022-07-30T09:21:35.396Z,32.30
2022-07-30T09:26:59.712Z,34.62
2022-07-30T09:32:56.572Z,34.58
2022-07-30T09:38:18.803Z,31.70
2022-07-30T09:43:28.295Z,36.06
2022-07-30T09:48:46.482Z,31.97
2022-07-30T09:54:00.091Z,33.58
2022-07-30T09:59:06.513Z,32.50
2022-07-30T10:04:30.770Z,32.46
2022-07-30T10:09:47.062Z,33.80
2022-07-30T10:14:54.604Z,31.09
2022-07-30T10:19:58.451Z,31.69
2022-07-30T10:25:29.789Z,31.84
2022-07-30T10:30:49.783Z,30.64
2022-07-30T10:35:55.013Z,32.21
2022-07-30T10:41:44.471Z,30.22
2022-07-30T10:47:07.646Z,32.13
2022-07-30T10:52:12.293Z,32.13
2022-07-30T10:57:23.170Z,31.30
2022-07-30T11:02:37.243Z,31.71
2022-07-30T11:07:41.465Z,32.50
2022-07-30T11:12:55.751Z,31.70
2022-07-30T11:18:01.331Z,35.91
2022-07-30T11:23:19.755Z,32.44
2022-07-30T11:28:49.265Z,27.41
2022-07-30T11:33:53.663Z,29.83
2022-07-30T11:39:05.395Z,29.34
2022-07-30T11:44:28.182Z,27.95
2022-07-30T11:49:37.773Z,28.80
2022-07-30T11:54:54.925Z,30.04
2022-07-30T11:59:58.428Z,26.32
2022-07-30T12:05:02.201Z,25.84
2022-07-30T12:10:17.061Z,27.30
2022-07-30T12:15:33.227Z,24.94
2022-07-30T12:20:37.138Z,23.19
2022-07-30T12:25:50.868Z,27.59
2022-07-30T12:30:57.341Z,23.09
2022-07-30T12:36:01.363Z,24.01
2022-07-30T12:41:06.212Z,23.92
2022-07-30T12:46:14.533Z,20.64
2022-07-30T12:51:18.788Z,23.73
2022-07-30T12:56:25.111Z,26.10
2022-07-30T13:01:50.344Z,23.97
2022-07-30T13:07:12.891Z,23.86
2022-07-30T13:12:16.367Z,24.73
2022-07-30T13:17:20.063Z,24.41
2022-07-30T13:22:23.498Z,25.58
2022-07-30T13:27:27.207Z,27.60
2022-07-30T13:32:31.633Z,26.02
2022-07-30T13:37:38.450Z,28.48
2022-07-30T13:42:42.870Z,26.52
2022-07-30T13:47:46.490Z,27.54
2022-07-30T13:52:49.688Z,28.33
2022-07-30T13:57:53.012Z,29.07
2022-07-30T14:02:56.061Z,27.36
2022-07-30T14:07:59.650Z,27.85
2022-07-30T14:13:03.599Z,26.57
2022-07-30T14:18:07.222Z,28.80
2022-07-30T14:23:10.864Z,29.87
2022-07-30T14:28:14.273Z,28.28
2022-07-30T14:33:17.551Z,32.57
2022-07-30T14:38:21.207Z,29.87
2022-07-30T14:43:27.570Z,28.54
2022-07-30T14:48:31.638Z,28.69
2022-07-30T14:53:35.686Z,29.19
2022-07-30T14:58:39.560Z,29.95
2022-07-30T15:03:42.841Z,31.21
2022-07-30T15:08:46.973Z,30.35
2022-07-30T15:13:50.790Z,30.43
2022-07-30T15:18:54.167Z,29.58
2022-07-30T15:23:57.749Z,29.18
2022-07-30T15:29:00.874Z,29.99
2022-07-30T15:34:04.036Z,30.14
2022-07-30T15:39:07.354Z,28.39
2022-07-30T15:44:10.778Z,29.25
2022-07-30T15:49:15.993Z,28.28
2022-07-30T15:54:23.059Z,28.40
2022-07-30T15:59:28.117Z,30.66
2022-07-30T16:04:33.274Z,31.14
2022-07-30T16:09:37.472Z,32.90
2022-07-30T16:14:40.794Z,31.48
2022-07-30T16:19:45.277Z,33.59
2022-07-30T16:24:48.905Z,34.45
2022-07-30T16:29:53.065Z,36.45
2022-07-30T16:34:56.776Z,37.68
2022-07-30T16:40:00.501Z,37.77
2022-07-30T16:45:04.200Z,37.83
2022-07-30T16:50:07.674Z,38.60
2022-07-30T16:55:11.163Z,39.27
2022-07-30T17:00:15.119Z,40.46
2022-07-30T17:05:18.708Z,41.42
2022-07-30T17:10:25.584Z,42.74
2022-07-30T17:15:32.897Z,42.46
2022-07-30T17:20:36.722Z,42.42
2022-07-30T17:25:40.697Z,41.58
2022-07-30T17:30:45.026Z,43.48
2022-07-30T17:35:50.064Z,42.57
2022-07-30T17:40:54.464Z,42.89
2022-07-30T17:45:57.769Z,44.50
2022-07-30T17:51:02.113Z,44.23
2022-07-30T17:56:06.264Z,44.73
2022-07-30T18:01:12.992Z,46.94
2022-07-30T18:06:16.479Z,49.37
2022-07-30T18:11:20.349Z,48.82
2022-07-30T18:16:24.661Z,50.05
2022-07-30T18:21:28.097Z,51.28
2022-07-30T18:26:36.833Z,52.02
2022-07-30T18:31:40.611Z,51.30
2022-07-30T18:36:44.261Z,49.35
2022-07-30T18:41:48.076Z,48.35
2022-07-30T18:46:53.230Z,49.28
2022-07-30T18:51:57.554Z,48.02
2022-07-30T18:57:01.269Z,47.78
2022-07-30T19:02:07.405Z,48.64
2022-07-30T19:07:11.404Z,49.96
2022-07-30T19:12:15.094Z,50.55
2022-07-30T19:17:18.203Z,49.59
2022-07-30T19:22:29.973Z,48.19
2022-07-30T19:27:33.228Z,47.29
2022-07-30T19:32:37.176Z,46.77
2022-07-30T19:37:40.178Z,47.70
2022-07-30T19:42:43.364Z,47.75
2022-07-30T19:47:47.437Z,47.28
2022-07-30T19:52:54.814Z,47.35
2022-07-30T19:57:58.867Z,47.50
2022-07-30T20:03:02.014Z,48.26
2022-07-30T20:08:06.807Z,47.64
2022-07-30T20:13:10.914Z,48.24
2022-07-30T20:18:15.725Z,48.19
2022-07-30T20:23:19.876Z,49.86
2022-07-30T20:28:23.399Z,50.73
2022-07-30T20:33:36.205Z,52.09
2022-07-30T20:38:44.732Z,53.03
2022-07-30T20:43:51.974Z,53.16
2022-07-30T20:48:56.124Z,50.54
2022-07-30T20:54:01.009Z,50.71
2022-07-30T20:59:06.659Z,51.58
2022-07-30T21:04:11.611Z,50.96
2022-07-30T21:09:49.762Z,47.41
2022-07-30T21:14:56.405Z,46.90
2022-07-30T21:19:59.514Z,46.74
2022-07-30T21:25:08.839Z,47.28
2022-07-30T21:30:15.734Z,48.75
2022-07-30T21:35:19.039Z,46.94
2022-07-30T21:40:24.788Z,46.82
2022-07-30T21:45:38.010Z,47.66
2022-07-30T21:50:42.709Z,48.53
2022-07-30T21:55:52.905Z,48.71
2022-07-30T22:00:56.713Z,48.66
2022-07-30T22:06:00.912Z,47.03
2022-07-30T22:11:05.350Z,43.28
2022-07-30T22:16:12.646Z,44.15
2022-07-30T22:21:19.172Z,44.02
2022-07-30T22:26:22.309Z,45.25
2022-07-30T22:31:30.973Z,46.55
2022-07-30T22:36:48.407Z,47.53
2022-07-30T22:41:57.350Z,48.97
2022-07-30T22:47:04.084Z,49.71
2022-07-30T22:52:19.839Z,49.53
2022-07-30T22:57:30.088Z,50.73
2022-07-30T23:02:42.573Z,52.20
2022-07-30T23:07:46.764Z,52.73
2022-07-30T23:12:52.365Z,53.27
2022-07-30T23:17:56.001Z,52.63
2022-07-30T23:23:02.332Z,53.66
2022-07-30T23:28:05.852Z,54.80
2022-07-30T23:33:09.014Z,55.65
2022-07-30T23:38:12.710Z,55.84
2022-07-30T23:43:15.878Z,54.10
2022-07-30T23:48:19.641Z,51.55
2022-07-30T23:53:23.341Z,50.03
2022-07-30T23:58:27.147Z,50.49
